Time;durP1;ratioP1;P1;durP2;ratioP2;P2;SDS_P1;SDS_P2;PMS_P1;PMS_P2;Temp;Humidity;BMP_temperature;BMP_pressure;BME280_temperature;BME280_humidity;BME280_pressure;Samples;Min_cycle;Max_cycle;Signal;HPM_P1;HPM_P2
2023/10/17 00:01:21;;;;;;;14.05;7.15;;;7.60;99.90;;;;;;4982695;28;20067;-80
2023/10/17 00:03:47;;;;;;;13.63;6.45;;;7.60;99.90;;;;;;4981014;28;20042;-80
2023/10/17 00:06:17;;;;;;;11.75;6.25;;;7.60;99.90;;;;;;4984072;28;20104;-79
2023/10/17 00:08:50;;;;;;;11.15;5.65;;;7.60;99.90;;;;;;4979475;28;20410;-80
2023/10/17 00:11:17;;;;;;;14.98;6.30;;;7.60;99.90;;;;;;4971122;28;20486;-80
2023/10/17 00:13:59;;;;;;;12.88;5.53;;;7.60;99.90;;;;;;4982284;28;20073;-80
2023/10/17 00:16:30;;;;;;;13.98;6.18;;;7.80;99.90;;;;;;4987586;28;20056;-80
2023/10/17 00:19:01;;;;;;;11.55;6.65;;;7.60;99.90;;;;;;5000461;28;20061;-80
2023/10/17 00:21:27;;;;;;;13.63;6.32;;;7.60;99.90;;;;;;4985823;28;20108;-80
2023/10/17 00:23:53;;;;;;;13.05;6.97;;;7.60;99.90;;;;;;4982841;28;20038;-80
2023/10/17 00:26:19;;;;;;;12.65;6.50;;;7.80;99.90;;;;;;4999445;28;20096;-80
2023/10/17 00:28:48;;;;;;;14.25;6.78;;;7.60;99.90;;;;;;4979394;28;21284;-80
2023/10/17 00:31:14;;;;;;;14.27;6.38;;;7.70;99.90;;;;;;4981671;28;20678;-80
2023/10/17 00:33:41;;;;;;;14.02;7.18;;;8.10;99.90;;;;;;4982325;28;20152;-80
2023/10/17 00:36:14;;;;;;;11.73;6.50;;;7.60;99.90;;;;;;4984641;28;20053;-80
2023/10/17 00:38:43;;;;;;;15.43;7.00;;;7.60;99.90;;;;;;4977338;28;20046;-80
2023/10/17 00:41:10;;;;;;;12.25;6.53;;;7.60;99.90;;;;;;4988752;28;20192;-80
2023/10/17 00:43:37;;;;;;;12.48;6.97;;;7.60;99.90;;;;;;4980737;28;20038;-80
2023/10/17 00:46:07;;;;;;;12.00;6.78;;;7.50;99.90;;;;;;4996957;28;20501;-80
2023/10/17 00:48:34;;;;;;;13.10;6.88;;;7.60;99.90;;;;;;4995737;28;20438;-80
2023/10/17 00:51:08;;;;;;;12.60;6.95;;;7.60;99.90;;;;;;4996511;28;20045;-80
2023/10/17 00:53:40;;;;;;;12.30;7.32;;;7.60;99.90;;;;;;4982184;28;20372;-80
2023/10/17 00:56:07;;;;;;;;;;;7.90;99.90;;;;;;5003828;28;20065;-80
2023/10/17 00:58:33;;;;;;;13.48;6.15;;;7.50;99.90;;;;;;4977719;28;20023;-80
2023/10/17 01:03:34;;;;;;;11.70;6.43;;;7.70;99.90;;;;;;4997360;28;20045;-80
2023/10/17 01:08:50;;;;;;;13.77;6.50;;;7.60;99.90;;;;;;4999716;28;20055;-80
2023/10/17 01:11:20;;;;;;;12.18;6.35;;;7.50;99.90;;;;;;4998631;28;20029;-80
2023/10/17 01:13:53;;;;;;;10.13;5.97;;;7.50;99.90;;;;;;4979484;28;20054;-80
2023/10/17 01:16:20;;;;;;;15.88;6.90;;;7.50;99.90;;;;;;4994351;28;20052;-80
2023/10/17 01:18:47;;;;;;;13.10;5.95;;;7.70;99.90;;;;;;4995815;28;20034;-80
2023/10/17 01:21:20;;;;;;;12.10;6.18;;;7.50;99.90;;;;;;4975694;28;20211;-81
2023/10/17 01:23:47;;;;;;;10.95;5.97;;;7.60;99.90;;;;;;5004095;28;20634;-80
2023/10/17 01:26:23;;;;;;;10.82;5.82;;;7.60;99.90;;;;;;4984911;28;20058;-80
2023/10/17 01:28:53;;;;;;;14.68;5.10;;;7.50;99.90;;;;;;4990970;28;20144;-80
2023/10/17 01:31:22;;;;;;;11.88;5.40;;;7.60;99.90;;;;;;4991755;28;20050;-80
2023/10/17 01:33:55;;;;;;;11.77;5.30;;;7.60;99.90;;;;;;4990868;28;20034;-80
2023/10/17 01:36:22;;;;;;;9.23;4.20;;;7.50;99.90;;;;;;4991156;28;20132;-80
2023/10/17 01:38:50;;;;;;;10.30;5.13;;;7.50;99.90;;;;;;4979764;28;20041;-80
2023/10/17 01:41:20;;;;;;;12.55;4.50;;;7.50;99.90;;;;;;4976456;28;20050;-80
2023/10/17 01:43:50;;;;;;;10.02;3.80;;;7.60;99.90;;;;;;4976647;28;20253;-80
2023/10/17 01:46:21;;;;;;;9.63;3.80;;;7.50;99.90;;;;;;4990031;28;20128;-80
2023/10/17 01:48:48;;;;;;;9.43;4.15;;;7.50;99.90;;;;;;4994364;28;20621;-79
2023/10/17 01:51:15;;;;;;;9.65;3.70;;;7.60;99.90;;;;;;4994323;28;20042;-80
2023/10/17 01:53:43;;;;;;;7.45;3.45;;;7.50;99.90;;;;;;4991845;28;20132;-80
2023/10/17 01:56:15;;;;;;;8.98;3.58;;;7.50;99.90;;;;;;4998904;28;20065;-79
2023/10/17 01:58:51;;;;;;;9.52;3.70;;;7.50;99.90;;;;;;4991409;28;20112;-79
2023/10/17 02:01:29;;;;;;;8.77;3.33;;;7.50;99.90;;;;;;4985396;28;20048;-79
2023/10/17 02:04:03;;;;;;;6.80;3.42;;;7.50;99.90;;;;;;5001718;28;20053;-79
2023/10/17 02:06:33;;;;;;;7.95;3.55;;;7.40;99.90;;;;;;4999186;28;20054;-79
2023/10/17 02:08:59;;;;;;;9.68;3.97;;;7.40;99.90;;;;;;4998170;28;20034;-79
2023/10/17 02:11:37;;;;;;;7.43;3.53;;;7.40;99.90;;;;;;4981324;28;20511;-80
2023/10/17 02:14:02;;;;;;;8.25;3.38;;;7.40;99.90;;;;;;4996457;28;20119;-79
2023/10/17 02:16:29;;;;;;;8.18;3.05;;;7.40;99.90;;;;;;4979798;28;20046;-79
2023/10/17 02:18:55;;;;;;;5.78;2.63;;;7.40;99.90;;;;;;4996451;28;20080;-79
2023/10/17 02:21:21;;;;;;;7.38;3.42;;;7.40;99.90;;;;;;4977879;28;20081;-80
2023/10/17 02:23:51;;;;;;;11.30;3.78;;;7.60;99.90;;;;;;4995759;28;20041;-80
2023/10/17 02:26:21;;;;;;;7.35;3.17;;;7.30;99.90;;;;;;4980056;28;20316;-80
2023/10/17 02:28:54;;;;;;;9.65;2.92;;;7.30;99.90;;;;;;4978691;28;20112;-80
2023/10/17 02:31:29;;;;;;;8.93;2.90;;;7.30;99.90;;;;;;4978185;28;20041;-80
2023/10/17 02:33:56;;;;;;;6.28;2.65;;;7.30;99.90;;;;;;4998231;28;20041;-80
2023/10/17 02:36:22;;;;;;;6.82;2.60;;;7.30;99.90;;;;;;4980097;28;20058;-80
2023/10/17 02:38:49;;;;;;;9.40;2.88;;;7.20;99.90;;;;;;4997319;28;20049;-80
2023/10/17 02:41:28;;;;;;;8.02;2.60;;;7.20;99.90;;;;;;4998839;28;20132;-80
2023/10/17 02:43:55;;;;;;;6.20;2.63;;;7.20;99.90;;;;;;4992912;28;20081;-80
2023/10/17 02:46:27;;;;;;;7.82;2.83;;;7.10;99.90;;;;;;4969924;28;20380;-80
2023/10/17 02:48:54;;;;;;;10.10;2.33;;;7.10;99.90;;;;;;4971564;28;20474;-80
2023/10/17 02:53:53;;;;;;;6.55;2.40;;;7.10;99.90;;;;;;4991846;28;20383;-81
2023/10/17 02:56:23;;;;;;;6.97;2.47;;;7.10;99.90;;;;;;4974590;28;20061;-80
2023/10/17 02:58:50;;;;;;;6.65;2.30;;;7.00;99.90;;;;;;4986048;28;20419;-80
2023/10/17 03:01:17;;;;;;;8.02;2.40;;;7.00;99.90;;;;;;4973083;28;20128;-80
2023/10/17 03:03:43;;;;;;;5.90;2.50;;;7.00;99.90;;;;;;4975088;28;20046;-79
2023/10/17 03:06:08;;;;;;;6.32;2.30;;;7.00;99.90;;;;;;4995625;28;20218;-80
2023/10/17 03:08:36;;;;;;;6.28;2.58;;;6.90;99.90;;;;;;4995780;28;20501;-80
2023/10/17 03:11:02;;;;;;;6.20;2.20;;;7.20;99.90;;;;;;4990291;28;20053;-80
2023/10/17 03:14:09;;;;;;;5.55;1.92;;;7.10;99.90;;;;;;4973481;28;20041;-80
2023/10/17 03:16:26;;;;;;;6.25;2.00;;;6.80;99.90;;;;;;4985916;28;20053;-80
2023/10/17 03:18:52;;;;;;;;;;;7.30;99.90;;;;;;4976516;28;20050;-80
2023/10/17 03:21:30;;;;;;;6.15;1.90;;;7.30;99.90;;;;;;4978473;28;19965;-80
2023/10/17 03:24:10;;;;;;;5.70;2.25;;;6.60;99.90;;;;;;4995178;28;20077;-80
2023/10/17 03:26:54;;;;;;;6.38;2.55;;;6.60;99.90;;;;;;4992444;28;20054;-80
2023/10/17 03:29:23;;;;;;;5.45;2.40;;;6.70;99.90;;;;;;4977471;28;20038;-80
2023/10/17 03:31:53;;;;;;;9.02;2.33;;;6.50;99.90;;;;;;4975365;28;20063;-80
2023/10/17 03:34:30;;;;;;;4.75;2.33;;;6.60;99.90;;;;;;4993302;28;20060;-80
2023/10/17 03:36:56;;;;;;;9.35;2.65;;;6.50;99.90;;;;;;4991979;28;20164;-80
2023/10/17 03:39:26;;;;;;;6.50;2.38;;;6.70;99.90;;;;;;4978559;28;20058;-80
2023/10/17 03:41:58;;;;;;;7.63;2.75;;;6.40;99.90;;;;;;4978302;28;20353;-81
2023/10/17 03:44:30;;;;;;;8.10;2.80;;;6.30;99.90;;;;;;4990908;28;20320;-80
2023/10/17 03:46:59;;;;;;;5.72;2.35;;;6.30;99.90;;;;;;4975933;28;20141;-80
2023/10/17 03:49:36;;;;;;;6.05;2.72;;;6.30;99.90;;;;;;4978240;28;20100;-80
2023/10/17 03:52:04;;;;;;;6.10;2.60;;;6.30;99.90;;;;;;4979333;28;20057;-80
2023/10/17 03:54:30;;;;;;;5.47;2.30;;;6.20;99.90;;;;;;4995371;28;20062;-80
2023/10/17 03:56:56;;;;;;;6.10;2.38;;;6.20;99.90;;;;;;4995260;28;20045;-80
2023/10/17 03:59:50;;;;;;;7.07;2.25;;;6.20;99.90;;;;;;4993291;28;20046;-80
2023/10/17 04:02:17;;;;;;;9.15;2.72;;;6.20;99.90;;;;;;4994136;28;20042;-80
2023/10/17 04:04:55;;;;;;;7.03;2.60;;;6.10;99.90;;;;;;4993823;28;20931;-80
2023/10/17 04:07:23;;;;;;;7.78;3.28;;;6.10;99.90;;;;;;4995871;28;20049;-79
2023/10/17 04:10:19;;;;;;;7.18;2.80;;;6.10;99.90;;;;;;4977973;28;20108;-80
2023/10/17 04:13:13;;;;;;;6.82;2.50;;;6.20;99.90;;;;;;4990417;28;20046;-80
2023/10/17 04:15:33;;;;;;;6.55;2.90;;;6.10;99.90;;;;;;4998814;28;20077;-80
2023/10/17 04:17:59;;;;;;;7.18;2.63;;;6.10;99.90;;;;;;4975506;28;20470;-80
2023/10/17 04:20:25;;;;;;;5.97;2.50;;;6.00;99.90;;;;;;4996481;28;20045;-80
2023/10/17 04:22:51;;;;;;;7.53;2.80;;;6.00;99.90;;;;;;4989216;28;20394;-80
2023/10/17 04:25:20;;;;;;;6.80;2.80;;;6.00;99.90;;;;;;4992908;28;20060;-80
2023/10/17 04:27:58;;;;;;;7.65;2.67;;;6.00;99.90;;;;;;5006083;28;20914;-80
2023/10/17 04:30:34;;;;;;;6.20;2.45;;;6.00;99.90;;;;;;5006309;28;20053;-80
2023/10/17 04:33:09;;;;;;;7.70;2.80;;;6.00;99.90;;;;;;4982796;28;21519;-80
2023/10/17 04:35:36;;;;;;;6.57;2.63;;;6.00;99.90;;;;;;5001831;28;20077;-80
2023/10/17 04:38:19;;;;;;;11.13;3.10;;;6.00;99.90;;;;;;5000772;28;20038;-80
2023/10/17 04:40:54;;;;;;;6.85;3.08;;;6.00;99.90;;;;;;5005805;28;20053;-79
2023/10/17 04:46:08;;;;;;;6.80;2.50;;;6.00;99.90;;;;;;5008553;28;20573;-80
2023/10/17 04:48:40;;;;;;;5.15;2.15;;;5.90;99.90;;;;;;4995908;28;20045;-80
2023/10/17 04:53:48;;;;;;;6.60;2.40;;;5.90;99.90;;;;;;4998793;28;20053;-80
2023/10/17 04:56:22;;;;;;;6.22;2.38;;;5.80;99.90;;;;;;4993901;28;20305;-79
2023/10/17 04:58:53;;;;;;;6.68;2.88;;;5.80;99.90;;;;;;4997429;28;20053;-81
2023/10/17 05:04:19;;;;;;;7.47;2.60;;;5.70;99.90;;;;;;4989431;28;20529;-80
2023/10/17 06:17:55;;;;;;;7.18;3.05;;;5.90;99.90;;;;;;4976451;28;20573;-81
2023/10/17 06:21:06;;;;;;;7.35;2.83;;;5.90;99.90;;;;;;4968819;28;20037;-80
2023/10/17 06:24:06;;;;;;;7.45;3.13;;;6.40;99.90;;;;;;4975847;28;20054;-80
2023/10/17 06:30:27;;;;;;;7.97;3.15;;;6.10;99.90;;;;;;4976876;28;20056;-80
2023/10/17 06:31:57;;;;;;;6.60;2.53;;;5.90;99.90;;;;;;4978980;28;20054;-80
2023/10/17 06:34:24;;;;;;;7.07;3.10;;;5.90;99.90;;;;;;4966693;28;20051;-80
2023/10/17 06:36:59;;;;;;;6.13;2.97;;;6.00;99.90;;;;;;4980913;28;20050;-81
2023/10/17 06:39:27;;;;;;;7.43;2.58;;;6.00;99.90;;;;;;4978514;28;20120;-80
2023/10/17 06:41:56;;;;;;;8.05;3.20;;;6.20;99.90;;;;;;4973034;28;20569;-80
2023/10/17 06:44:22;;;;;;;7.43;2.70;;;6.00;99.90;;;;;;4967864;28;20049;-80
2023/10/17 06:54:54;;;;;;;4.82;2.40;;;6.00;99.90;;;;;;4968997;28;20053;-79
2023/10/17 06:57:23;;;;;;;5.68;2.75;;;6.20;99.90;;;;;;4985964;28;20540;-80
2023/10/17 06:59:50;;;;;;;6.57;2.33;;;6.10;99.90;;;;;;4965378;28;20049;-80
2023/10/17 07:02:30;;;;;;;7.30;2.55;;;6.10;99.90;;;;;;4971430;28;20069;-80
2023/10/17 07:05:01;;;;;;;8.70;2.72;;;6.10;99.90;;;;;;4962210;28;20085;-75
2023/10/17 07:07:40;;;;;;;8.02;2.47;;;6.20;99.90;;;;;;4981397;28;20053;-75
2023/10/17 07:13:31;;;;;;;7.25;2.42;;;6.20;99.90;;;;;;4983158;28;20351;-75
2023/10/17 07:16:04;;;;;;;8.75;2.47;;;6.20;99.90;;;;;;4979506;28;20049;-75
2023/10/17 07:23:43;;;;;;;6.38;2.83;;;6.40;99.90;;;;;;4976842;28;20537;-76
2023/10/17 07:26:24;;;;;;;7.47;2.50;;;6.40;99.90;;;;;;4964019;28;20537;-76
2023/10/17 07:28:52;;;;;;;6.88;2.20;;;6.40;99.90;;;;;;4964862;28;20057;-75
2023/10/17 07:31:22;;;;;;;8.55;2.58;;;6.50;99.90;;;;;;4953605;28;20553;-76
2023/10/17 07:34:16;;;;;;;5.82;2.75;;;6.50;99.90;;;;;;4964731;28;20056;-75
2023/10/17 07:36:48;;;;;;;11.07;3.63;;;6.60;99.90;;;;;;4946770;28;20037;-76
2023/10/17 07:39:23;;;;;;;8.25;2.83;;;6.60;99.90;;;;;;4969467;28;20443;-75
2023/10/17 07:41:55;;;;;;;7.85;2.63;;;6.70;99.90;;;;;;4974225;28;20589;-75
2023/10/17 07:44:26;;;;;;;9.13;2.92;;;6.70;99.90;;;;;;4975170;28;20907;-75
2023/10/17 07:47:09;;;;;;;8.57;2.80;;;6.80;99.90;;;;;;4950068;28;20092;-75
2023/10/17 07:49:40;;;;;;;8.52;3.10;;;6.80;99.90;;;;;;4968460;28;20254;-76
2023/10/17 07:52:30;;;;;;;;;;;6.80;99.90;;;;;;4964780;28;20058;-75
2023/10/17 07:54:55;;;;;;;8.48;2.40;;;6.90;99.90;;;;;;4961115;28;19965;-75
2023/10/17 07:57:36;;;;;;;8.63;2.70;;;6.90;99.90;;;;;;4946963;28;20383;-75
2023/10/17 08:00:24;;;;;;;12.73;3.08;;;7.00;99.90;;;;;;4951346;28;20045;-75
2023/10/17 08:02:55;;;;;;;7.72;3.13;;;7.00;99.90;;;;;;4953469;28;20073;-75
2023/10/17 08:05:26;;;;;;;8.80;3.38;;;7.00;99.90;;;;;;4965732;28;20303;-75
2023/10/17 08:08:13;;;;;;;7.72;3.05;;;7.10;99.90;;;;;;4966899;28;20347;-75
2023/10/17 08:10:39;;;;;;;10.55;3.20;;;7.20;99.90;;;;;;4968622;28;20046;-75
2023/10/17 08:13:08;;;;;;;11.40;2.95;;;7.30;99.90;;;;;;4957815;28;20634;-75
2023/10/17 08:15:52;;;;;;;9.30;2.97;;;7.40;99.90;;;;;;4962412;28;20054;-75
2023/10/17 08:18:23;;;;;;;8.90;2.80;;;7.60;99.90;;;;;;4971996;28;20049;-76
2023/10/17 08:23:34;;;;;;;7.43;2.30;;;7.80;99.90;;;;;;4974620;28;20073;-76
2023/10/17 08:26:00;;;;;;;7.00;2.58;;;8.00;99.90;;;;;;4952042;28;20560;-75
2023/10/17 08:28:31;;;;;;;9.40;2.83;;;8.50;99.90;;;;;;4978502;28;20038;-75
2023/10/17 08:36:42;;;;;;;8.55;2.42;;;8.40;99.90;;;;;;4975834;28;20081;-76
2023/10/17 08:42:12;;;;;;;8.02;1.70;;;8.50;99.90;;;;;;4971963;28;20058;-75
2023/10/17 08:44:39;;;;;;;10.88;2.10;;;8.70;99.90;;;;;;4973966;28;20120;-76
2023/10/17 08:47:07;;;;;;;6.90;2.38;;;8.70;99.90;;;;;;4975227;28;20144;-75
2023/10/17 08:49:33;;;;;;;6.63;2.15;;;8.80;99.90;;;;;;4962203;28;20168;-75
2023/10/17 08:51:59;;;;;;;7.28;2.05;;;8.80;99.90;;;;;;4976142;28;20386;-75
2023/10/17 08:54:27;;;;;;;8.00;1.90;;;8.90;99.90;;;;;;4961330;28;20076;-76
2023/10/17 08:56:53;;;;;;;8.27;1.65;;;9.00;99.90;;;;;;4978338;28;20095;-75
2023/10/17 08:59:34;;;;;;;7.47;2.13;;;9.00;99.90;;;;;;4982226;28;20041;-75
2023/10/17 09:02:05;;;;;;;7.37;1.63;;;9.10;99.90;;;;;;4958809;28;20042;-74
2023/10/17 09:04:33;;;;;;;4.85;1.63;;;9.20;99.90;;;;;;4960663;28;20363;-75
2023/10/17 09:07:08;;;;;;;6.63;1.52;;;9.30;99.90;;;;;;4963216;28;20042;-75
2023/10/17 09:09:34;;;;;;;5.78;1.63;;;9.30;99.90;;;;;;4964528;28;20092;-75
2023/10/17 09:12:01;;;;;;;5.60;1.60;;;9.50;99.90;;;;;;4976248;28;20049;-75
2023/10/17 09:14:29;;;;;;;5.05;1.13;;;9.40;99.90;;;;;;4974611;28;20128;-75
2023/10/17 09:17:11;;;;;;;7.90;1.55;;;9.50;99.90;;;;;;4976094;28;20156;-75
2023/10/17 09:19:51;;;;;;;8.23;1.60;;;9.60;99.90;;;;;;4980680;28;20184;-75
2023/10/17 09:22:23;;;;;;;7.13;1.33;;;9.70;99.90;;;;;;4976662;28;20115;-75
2023/10/17 09:24:50;;;;;;;4.70;1.20;;;9.70;99.90;;;;;;4980964;28;20045;-75
2023/10/17 09:27:18;;;;;;;7.22;1.92;;;9.70;99.90;;;;;;4981666;28;20042;-75
2023/10/17 09:29:52;;;;;;;6.03;1.35;;;9.70;99.90;;;;;;4969734;28;20038;-75
2023/10/17 09:32:37;;;;;;;7.00;1.70;;;9.80;99.90;;;;;;4981968;28;20498;-75
2023/10/17 09:35:10;;;;;;;8.57;1.52;;;9.80;99.90;;;;;;5005414;28;20144;-75
2023/10/17 09:37:38;;;;;;;6.97;1.65;;;9.90;99.90;;;;;;4979040;28;20175;-75
2023/10/17 09:40:11;;;;;;;7.72;1.60;;;9.90;99.90;;;;;;4990619;28;20732;-75
2023/10/17 09:42:44;;;;;;;6.68;1.35;;;10.00;99.90;;;;;;5002210;28;20142;-76
2023/10/17 09:45:14;;;;;;;6.30;1.63;;;10.00;99.90;;;;;;4987008;28;20096;-75
2023/10/17 09:47:44;;;;;;;5.85;1.45;;;10.00;99.90;;;;;;5000691;28;20049;-76
2023/10/17 09:50:16;;;;;;;4.93;1.48;;;10.30;99.90;;;;;;4990821;28;20045;-75
2023/10/17 09:52:45;;;;;;;8.45;1.58;;;10.10;99.90;;;;;;4990007;28;20057;-76
2023/10/17 09:55:13;;;;;;;6.13;1.42;;;10.20;99.90;;;;;;4989754;28;20129;-75
2023/10/17 09:57:44;;;;;;;3.13;1.33;;;10.30;99.90;;;;;;4986578;28;20045;-75
2023/10/17 10:00:36;;;;;;;6.70;1.58;;;10.30;99.90;;;;;;5002272;28;20050;-76
2023/10/17 10:03:05;;;;;;;4.07;1.10;;;10.30;99.90;;;;;;4982353;28;20057;-76
2023/10/17 10:05:32;;;;;;;5.82;1.88;;;10.40;99.90;;;;;;5000498;28;20045;-76
2023/10/17 10:08:05;;;;;;;4.55;1.48;;;10.40;99.90;;;;;;5003633;28;20125;-76
2023/10/17 10:10:48;;;;;;;4.50;1.20;;;10.50;99.90;;;;;;4989167;28;20042;-75
2023/10/17 10:13:14;;;;;;;4.97;1.40;;;10.60;99.90;;;;;;4996898;28;20048;-75
2023/10/17 10:15:51;;;;;;;8.32;1.40;;;10.60;99.90;;;;;;5001756;28;20049;-75
2023/10/17 10:18:28;;;;;;;7.57;1.27;;;10.60;99.90;;;;;;5002586;28;20058;-77
2023/10/17 10:20:57;;;;;;;6.28;1.27;;;10.60;99.90;;;;;;4979967;28;20580;-77
2023/10/17 10:23:37;;;;;;;7.45;1.10;;;10.60;99.90;;;;;;5000925;28;20133;-76
2023/10/17 10:26:11;;;;;;;5.28;1.33;;;11.10;99.90;;;;;;4978936;28;20406;-77
2023/10/17 10:28:38;;;;;;;8.05;1.27;;;10.70;99.90;;;;;;4973034;28;20136;-77
2023/10/17 10:31:23;;;;;;;5.65;1.10;;;10.80;99.90;;;;;;4977805;28;20049;-76
2023/10/17 10:33:50;;;;;;;4.00;1.05;;;10.80;99.90;;;;;;4961309;28;20119;-75
2023/10/17 10:36:16;;;;;;;7.88;1.33;;;10.90;99.90;;;;;;4963193;28;20455;-81
2023/10/17 10:38:42;;;;;;;6.32;1.10;;;10.90;99.90;;;;;;4980151;28;20057;-76
2023/10/17 10:41:08;;;;;;;5.60;1.27;;;10.90;99.90;;;;;;4977470;28;20389;-77
2023/10/17 10:43:34;;;;;;;8.18;1.20;;;10.90;99.90;;;;;;4978316;28;20328;-77
2023/10/17 10:46:01;;;;;;;7.18;1.20;;;10.80;99.90;;;;;;4974379;28;20120;-76
2023/10/17 10:48:26;;;;;;;4.45;1.17;;;10.90;99.90;;;;;;4963045;28;20057;-77
2023/10/17 10:50:56;;;;;;;4.93;1.05;;;10.90;99.90;;;;;;4973784;28;20065;-77
2023/10/17 10:53:29;;;;;;;7.00;1.08;;;10.90;99.90;;;;;;4965928;28;20510;-76
2023/10/17 10:55:56;;;;;;;3.55;1.00;;;10.90;99.90;;;;;;4975606;28;20952;-77
2023/10/17 10:58:26;;;;;;;3.88;1.20;;;10.90;99.90;;;;;;4975832;28;20161;-77
2023/10/17 11:00:58;;;;;;;4.15;1.30;;;11.00;99.90;;;;;;4962941;28;20061;-77
2023/10/17 11:03:24;;;;;;;4.78;1.35;;;11.00;99.90;;;;;;4962129;28;20057;-77
2023/10/17 11:05:52;;;;;;;5.65;1.38;;;11.00;99.90;;;;;;4955718;28;20070;-77
2023/10/17 11:08:20;;;;;;;7.80;1.33;;;11.10;99.90;;;;;;4975522;28;20507;-77
2023/10/17 11:10:46;;;;;;;5.15;1.15;;;11.10;99.90;;;;;;4963330;28;20526;-77
2023/10/17 11:13:12;;;;;;;5.47;1.40;;;11.10;99.90;;;;;;4960172;28;20048;-76
2023/10/17 11:15:45;;;;;;;8.20;1.10;;;11.20;99.90;;;;;;4975925;28;20069;-76
2023/10/17 11:18:11;;;;;;;7.53;1.15;;;11.20;99.90;;;;;;4977693;28;20058;-76
2023/10/17 11:20:40;;;;;;;3.53;1.20;;;11.20;99.90;;;;;;4961727;28;20092;-76
2023/10/17 11:23:11;;;;;;;5.65;1.20;;;11.20;99.90;;;;;;4979554;28;20042;-77
2023/10/17 11:25:43;;;;;;;11.07;1.70;;;11.20;99.90;;;;;;4962582;28;20045;-76
2023/10/17 11:28:08;;;;;;;;;;;11.30;99.90;;;;;;4963986;28;20050;-77
2023/10/17 11:30:45;;;;;;;4.47;1.08;;;11.30;99.90;;;;;;4965606;28;20443;-76
2023/10/17 11:33:14;;;;;;;3.53;1.10;;;11.30;99.90;;;;;;4983495;28;20076;-76
2023/10/17 11:35:47;;;;;;;5.10;1.13;;;11.30;99.90;;;;;;4979255;28;20387;-76
2023/10/17 11:38:38;;;;;;;8.60;1.65;;;11.40;99.90;;;;;;4984213;28;20073;-76
2023/10/17 11:41:07;;;;;;;4.37;1.23;;;11.40;99.90;;;;;;4983481;28;20112;-79
2023/10/17 11:43:42;;;;;;;4.72;1.17;;;11.40;99.90;;;;;;4982465;28;20402;-76
2023/10/17 11:46:14;;;;;;;5.43;1.10;;;11.50;99.90;;;;;;4980694;28;20054;-76
2023/10/17 11:48:44;;;;;;;3.83;1.20;;;11.50;99.90;;;;;;4965066;28;20075;-77
2023/10/17 11:51:13;;;;;;;3.50;1.33;;;11.60;99.90;;;;;;4964525;28;20069;-78
2023/10/17 11:54:07;;;;;;;5.55;1.60;;;11.60;99.90;;;;;;4965260;28;20041;-76
2023/10/17 11:56:35;;;;;;;4.55;1.75;;;11.60;99.90;;;;;;4964863;28;20046;-76
2023/10/17 11:59:03;;;;;;;7.80;1.50;;;11.70;99.90;;;;;;4984709;28;20053;-77
2023/10/17 12:01:34;;;;;;;4.60;1.10;;;11.70;99.90;;;;;;4982640;28;20053;-78
2023/10/17 12:04:05;;;;;;;2.83;1.00;;;11.70;99.90;;;;;;4964997;28;20139;-77
2023/10/17 12:06:32;;;;;;;5.40;1.27;;;11.70;99.90;;;;;;4961918;28;20719;-77
2023/10/17 12:08:57;;;;;;;5.65;1.25;;;11.70;99.90;;;;;;4961317;28;20109;-76
2023/10/17 12:11:26;;;;;;;5.00;1.17;;;11.70;99.90;;;;;;4980838;28;20141;-76
2023/10/17 12:13:52;;;;;;;3.90;0.95;;;11.70;99.90;;;;;;4965494;28;20038;-76
2023/10/17 12:16:23;;;;;;;2.53;0.90;;;11.70;99.90;;;;;;4979972;28;20056;-76
2023/10/17 12:18:50;;;;;;;4.70;0.90;;;11.70;99.90;;;;;;4990517;28;20056;-75
2023/10/17 12:21:16;;;;;;;3.63;0.93;;;11.70;99.90;;;;;;4975330;28;20049;-76
2023/10/17 12:23:42;;;;;;;2.83;1.10;;;11.70;99.90;;;;;;4983073;28;20069;-76
2023/10/17 12:26:13;;;;;;;7.43;1.63;;;11.70;99.90;;;;;;4987408;28;20053;-75
2023/10/17 12:28:42;;;;;;;;;;;11.70;99.90;;;;;;4974572;28;20046;-76
2023/10/17 12:31:16;;;;;;;4.53;0.90;;;11.80;99.90;;;;;;4984914;28;19929;-74
2023/10/17 12:33:43;;;;;;;7.03;1.63;;;11.80;99.90;;;;;;4979273;28;20149;-75
2023/10/17 12:36:09;;;;;;;4.95;1.08;;;11.80;99.90;;;;;;4968095;28;20050;-76
2023/10/17 12:38:35;;;;;;;4.78;1.00;;;11.80;99.90;;;;;;4986718;28;20042;-76
2023/10/17 12:41:06;;;;;;;4.10;1.15;;;11.80;99.90;;;;;;4969518;28;20398;-76
2023/10/17 12:43:35;;;;;;;6.03;1.17;;;11.80;99.90;;;;;;4969519;28;20506;-75
2023/10/17 12:46:02;;;;;;;4.03;1.15;;;11.80;99.90;;;;;;4979516;28;20054;-75
2023/10/17 12:48:28;;;;;;;4.30;1.42;;;12.10;99.90;;;;;;4973485;28;20100;-75
2023/10/17 12:50:54;;;;;;;10.52;1.13;;;11.90;99.90;;;;;;4987563;28;20050;-75
2023/10/17 12:53:21;;;;;;;3.20;1.10;;;11.90;99.90;;;;;;4989236;28;20054;-76
2023/10/17 12:55:47;;;;;;;5.72;1.73;;;11.90;99.90;;;;;;4986968;28;20054;-76
2023/10/17 12:58:18;;;;;;;5.20;1.40;;;11.90;99.90;;;;;;4965308;28;20046;-75
2023/10/17 13:00:47;;;;;;;;;;;11.90;99.90;;;;;;4981757;28;20080;-75
2023/10/17 13:03:13;;;;;;;5.03;1.50;;;11.90;99.90;;;;;;4967606;28;20272;-76
2023/10/17 13:05:39;;;;;;;3.97;1.20;;;11.90;99.90;;;;;;4966115;28;20404;-75
2023/10/17 13:08:05;;;;;;;6.00;1.55;;;11.90;99.90;;;;;;4985102;28;20042;-75
2023/10/17 13:10:31;;;;;;;6.15;1.40;;;11.90;99.90;;;;;;4985714;28;20046;-76
2023/10/17 13:13:00;;;;;;;8.40;1.50;;;11.90;99.90;;;;;;4964395;28;20127;-76
2023/10/17 13:15:26;;;;;;;5.40;1.40;;;11.90;99.90;;;;;;4974287;28;20049;-75
2023/10/17 13:17:55;;;;;;;5.22;1.60;;;11.90;99.90;;;;;;4990300;28;20049;-75
2023/10/17 13:20:28;;;;;;;3.88;1.33;;;11.90;99.90;;;;;;4990356;28;20054;-75
2023/10/17 13:22:59;;;;;;;6.75;1.55;;;11.90;99.90;;;;;;4977314;28;20061;-75
2023/10/17 13:25:25;;;;;;;7.93;2.00;;;11.90;99.90;;;;;;4978316;28;20054;-76
2023/10/17 13:27:53;;;;;;;5.32;1.40;;;11.90;99.90;;;;;;4967828;28;20048;-75
2023/10/17 13:30:19;;;;;;;6.85;1.55;;;11.90;99.90;;;;;;4980593;28;20044;-75
2023/10/17 13:32:44;;;;;;;6.63;1.35;;;11.90;99.90;;;;;;4981500;28;20054;-75
2023/10/17 13:35:10;;;;;;;4.38;1.20;;;11.90;99.90;;;;;;4994493;28;20060;-76
2023/10/17 13:37:36;;;;;;;3.67;1.58;;;11.90;99.90;;;;;;4978387;28;20679;-75
2023/10/17 13:40:03;;;;;;;5.25;1.40;;;11.90;99.90;;;;;;4957338;28;20629;-75
2023/10/17 13:42:30;;;;;;;7.22;1.73;;;11.90;99.90;;;;;;4980674;28;20087;-75
2023/10/17 13:44:56;;;;;;;5.57;1.42;;;11.90;99.90;;;;;;4959000;28;20038;-75
2023/10/17 13:47:21;;;;;;;7.15;1.25;;;11.90;99.90;;;;;;4978075;28;20054;-75
2023/10/17 13:49:47;;;;;;;4.43;1.40;;;11.90;99.90;;;;;;4983471;28;20502;-75
2023/10/17 13:52:17;;;;;;;4.88;1.40;;;11.90;99.90;;;;;;4963426;28;20506;-75
2023/10/17 13:54:44;;;;;;;4.57;1.40;;;11.90;99.90;;;;;;4964223;28;20049;-75
2023/10/17 13:57:10;;;;;;;3.83;1.38;;;11.90;99.90;;;;;;4986162;28;20046;-75
2023/10/17 13:59:39;;;;;;;3.50;1.15;;;11.90;99.90;;;;;;4958786;28;20050;-75
2023/10/17 14:02:08;;;;;;;6.13;1.75;;;11.90;99.90;;;;;;4975142;28;20256;-75
2023/10/17 14:04:38;;;;;;;3.55;1.02;;;11.90;99.90;;;;;;4952764;28;20046;-75
2023/10/17 14:07:04;;;;;;;4.88;1.38;;;11.90;99.90;;;;;;4964652;28;20045;-75
2023/10/17 14:09:30;;;;;;;3.00;1.73;;;11.90;99.90;;;;;;4960143;28;20064;-75
2023/10/17 14:11:56;;;;;;;3.78;0.90;;;11.90;99.90;;;;;;4975918;28;20042;-75
2023/10/17 14:14:25;;;;;;;3.65;1.13;;;11.90;99.90;;;;;;4973539;28;20139;-75
2023/10/17 14:16:52;;;;;;;6.35;1.33;;;12.10;99.90;;;;;;4950181;28;20486;-75
2023/10/17 14:22:20;;;;;;;5.78;1.00;;;12.20;99.90;;;;;;4967687;28;20107;-75
2023/10/17 14:27:23;;;;;;;3.55;0.70;;;11.80;99.90;;;;;;4982711;28;20466;-75
2023/10/17 14:29:49;;;;;;;4.53;1.10;;;11.90;99.90;;;;;;4980912;28;20050;-75
2023/10/17 14:32:22;;;;;;;3.45;0.90;;;11.90;99.90;;;;;;4962843;28;20050;-75
2023/10/17 14:34:48;;;;;;;3.70;1.27;;;11.90;99.90;;;;;;4980401;28;20053;-75
2023/10/17 14:37:15;;;;;;;2.63;0.95;;;11.90;99.90;;;;;;4984338;28;20141;-75
2023/10/17 14:39:41;;;;;;;4.05;0.88;;;11.90;99.90;;;;;;4981438;28;20038;-75
2023/10/17 14:42:10;;;;;;;2.22;0.80;;;11.80;99.90;;;;;;4986991;28;20085;-75
2023/10/17 14:44:37;;;;;;;1.45;0.68;;;11.80;99.90;;;;;;4954360;28;20467;-74
2023/10/17 14:47:06;;;;;;;3.03;0.95;;;11.80;99.90;;;;;;4979149;28;20147;-75
2023/10/17 14:49:32;;;;;;;4.13;0.90;;;11.80;99.90;;;;;;4985548;28;20057;-75
2023/10/17 14:51:57;;;;;;;6.28;1.10;;;11.80;99.90;;;;;;4984839;28;20493;-75
2023/10/17 14:54:25;;;;;;;4.68;0.80;;;11.80;99.90;;;;;;4982521;28;20194;-75
2023/10/17 14:56:53;;;;;;;6.30;1.38;;;11.80;99.90;;;;;;4966830;28;20045;-75
2023/10/17 14:59:19;;;;;;;4.90;1.10;;;11.80;99.90;;;;;;4969182;28;20046;-75
2023/10/17 15:01:46;;;;;;;3.10;0.85;;;11.80;99.90;;;;;;4970020;28;20060;-75
2023/10/17 15:04:12;;;;;;;5.32;0.80;;;11.70;99.90;;;;;;4984322;28;20491;-75
2023/10/17 15:06:38;;;;;;;3.15;0.80;;;11.70;99.90;;;;;;4969523;28;20054;-75
2023/10/17 15:09:07;;;;;;;8.15;1.08;;;11.70;99.90;;;;;;4970382;28;20037;-75
2023/10/17 15:11:34;;;;;;;4.82;0.90;;;11.70;99.90;;;;;;4968962;28;20137;-75
2023/10/17 15:14:00;;;;;;;3.70;0.80;;;11.70;99.90;;;;;;4969726;28;20049;-75